sensor_id;sensor_type;location;lat;lon;timestamp;temperature;humidity
23873;DHT22;42884;50.718;4.630;2024-02-23T00:01:05;6.50;99.90
23873;DHT22;42884;50.718;4.630;2024-02-23T00:03:31;6.50;99.90
23873;DHT22;42884;50.718;4.630;2024-02-23T00:05:57;6.50;99.90
23873;DHT22;42884;50.718;4.630;2024-02-23T00:08:22;6.60;99.90
23873;DHT22;42884;50.718;4.630;2024-02-23T00:10:48;6.40;99.90
23873;DHT22;42884;50.718;4.630;2024-02-23T00:13:14;6.40;99.90
23873;DHT22;42884;50.718;4.630;2024-02-23T00:15:39;6.30;99.90
23873;DHT22;42884;50.718;4.630;2024-02-23T00:18:05;6.40;99.90
23873;DHT22;42884;50.718;4.630;2024-02-23T00:20:32;6.50;99.90
23873;DHT22;42884;50.718;4.630;2024-02-23T00:22:57;6.50;99.90
23873;DHT22;42884;50.718;4.630;2024-02-23T00:25:23;6.40;99.90
23873;DHT22;42884;50.718;4.630;2024-02-23T00:27:49;6.40;99.90
23873;DHT22;42884;50.718;4.630;2024-02-23T00:30:15;6.40;99.90
23873;DHT22;42884;50.718;4.630;2024-02-23T00:32:40;6.40;99.90
23873;DHT22;42884;50.718;4.630;2024-02-23T00:35:06;6.40;99.90
23873;DHT22;42884;50.718;4.630;2024-02-23T00:37:32;6.30;99.90
23873;DHT22;42884;50.718;4.630;2024-02-23T00:40:06;6.10;99.90
23873;DHT22;42884;50.718;4.630;2024-02-23T00:42:32;6.10;99.90
23873;DHT22;42884;50.718;4.630;2024-02-23T00:44:58;6.10;99.90
23873;DHT22;42884;50.718;4.630;2024-02-23T00:47:23;6.10;99.90
23873;DHT22;42884;50.718;4.630;2024-02-23T00:49:49;6.10;99.90
23873;DHT22;42884;50.718;4.630;2024-02-23T00:52:15;6.10;99.90
23873;DHT22;42884;50.718;4.630;2024-02-23T00:54:40;6.20;99.90
23873;DHT22;42884;50.718;4.630;2024-02-23T00:57:06;6.20;99.90
23873;DHT22;42884;50.718;4.630;2024-02-23T00:59:32;6.30;99.90
23873;DHT22;42884;50.718;4.630;2024-02-23T01:01:57;6.30;99.90
23873;DHT22;42884;50.718;4.630;2024-02-23T01:04:23;6.30;99.90
23873;DHT22;42884;50.718;4.630;2024-02-23T01:06:49;6.30;99.90
23873;DHT22;42884;50.718;4.630;2024-02-23T01:09:14;6.30;99.90
23873;DHT22;42884;50.718;4.630;2024-02-23T01:11:42;6.30;99.90
23873;DHT22;42884;50.718;4.630;2024-02-23T01:14:07;6.20;99.90
23873;DHT22;42884;50.718;4.630;2024-02-23T01:16:33;6.20;99.90
23873;DHT22;42884;50.718;4.630;2024-02-23T01:18:59;6.20;99.90
23873;DHT22;42884;50.718;4.630;2024-02-23T01:21:24;6.30;99.90
23873;DHT22;42884;50.718;4.630;2024-02-23T01:23:50;6.20;99.90
23873;DHT22;42884;50.718;4.630;2024-02-23T01:26:15;6.20;99.90
23873;DHT22;42884;50.718;4.630;2024-02-23T01:28:41;6.30;99.90
23873;DHT22;42884;50.718;4.630;2024-02-23T01:31:09;6.30;99.90
23873;DHT22;42884;50.718;4.630;2024-02-23T01:33:39;6.20;99.90
23873;DHT22;42884;50.718;4.630;2024-02-23T01:36:04;6.10;99.90
23873;DHT22;42884;50.718;4.630;2024-02-23T01:38:30;6.10;99.90
23873;DHT22;42884;50.718;4.630;2024-02-23T01:41:00;6.10;99.90
23873;DHT22;42884;50.718;4.630;2024-02-23T01:43:25;6.20;99.90
23873;DHT22;42884;50.718;4.630;2024-02-23T01:45:51;6.20;99.90
23873;DHT22;42884;50.718;4.630;2024-02-23T01:48:17;6.20;99.90
23873;DHT22;42884;50.718;4.630;2024-02-23T01:50:43;6.20;99.90
23873;DHT22;42884;50.718;4.630;2024-02-23T01:53:11;6.20;99.90
23873;DHT22;42884;50.718;4.630;2024-02-23T01:55:39;6.20;99.90
23873;DHT22;42884;50.718;4.630;2024-02-23T01:58:05;6.20;99.90
23873;DHT22;42884;50.718;4.630;2024-02-23T02:00:31;6.30;99.90
23873;DHT22;42884;50.718;4.630;2024-02-23T02:02:57;6.40;99.90
23873;DHT22;42884;50.718;4.630;2024-02-23T02:05:22;6.40;99.90
23873;DHT22;42884;50.718;4.630;2024-02-23T02:07:49;6.40;99.90
23873;DHT22;42884;50.718;4.630;2024-02-23T02:10:19;6.30;99.90
23873;DHT22;42884;50.718;4.630;2024-02-23T02:12:45;6.30;99.90
23873;DHT22;42884;50.718;4.630;2024-02-23T02:15:10;6.30;99.90
23873;DHT22;42884;50.718;4.630;2024-02-23T02:17:36;6.20;99.90
23873;DHT22;42884;50.718;4.630;2024-02-23T02:20:02;6.30;99.90
23873;DHT22;42884;50.718;4.630;2024-02-23T02:22:34;6.30;99.90
23873;DHT22;42884;50.718;4.630;2024-02-23T02:25:00;6.30;99.90
23873;DHT22;42884;50.718;4.630;2024-02-23T02:27:25;6.10;99.90
23873;DHT22;42884;50.718;4.630;2024-02-23T02:29:51;6.30;99.90
23873;DHT22;42884;50.718;4.630;2024-02-23T02:32:17;6.20;99.90
23873;DHT22;42884;50.718;4.630;2024-02-23T02:34:42;6.30;99.90
23873;DHT22;42884;50.718;4.630;2024-02-23T02:37:08;6.30;99.90
23873;DHT22;42884;50.718;4.630;2024-02-23T02:39:34;6.30;99.90
23873;DHT22;42884;50.718;4.630;2024-02-23T02:41:59;6.20;99.90
23873;DHT22;42884;50.718;4.630;2024-02-23T02:44:25;6.30;99.90
23873;DHT22;42884;50.718;4.630;2024-02-23T02:46:52;6.40;99.90
23873;DHT22;42884;50.718;4.630;2024-02-23T02:49:17;6.40;99.90
23873;DHT22;42884;50.718;4.630;2024-02-23T02:51:43;6.40;99.90
23873;DHT22;42884;50.718;4.630;2024-02-23T02:54:10;6.40;99.90
23873;DHT22;42884;50.718;4.630;2024-02-23T02:56:36;6.40;99.90
23873;DHT22;42884;50.718;4.630;2024-02-23T02:59:01;6.30;99.90
23873;DHT22;42884;50.718;4.630;2024-02-23T03:01:27;6.30;99.90
23873;DHT22;42884;50.718;4.630;2024-02-23T03:03:52;6.30;99.90
23873;DHT22;42884;50.718;4.630;2024-02-23T03:06:18;6.30;99.90
23873;DHT22;42884;50.718;4.630;2024-02-23T03:08:43;6.40;99.90
23873;DHT22;42884;50.718;4.630;2024-02-23T03:11:09;6.40;99.90
23873;DHT22;42884;50.718;4.630;2024-02-23T03:13:35;6.30;99.90
23873;DHT22;42884;50.718;4.630;2024-02-23T03:16:00;6.40;99.90
23873;DHT22;42884;50.718;4.630;2024-02-23T03:18:26;6.30;99.90
23873;DHT22;42884;50.718;4.630;2024-02-23T03:20:54;6.30;99.90
23873;DHT22;42884;50.718;4.630;2024-02-23T03:23:20;6.30;99.90
23873;DHT22;42884;50.718;4.630;2024-02-23T03:25:46;6.40;99.90
23873;DHT22;42884;50.718;4.630;2024-02-23T03:28:12;6.40;99.90
23873;DHT22;42884;50.718;4.630;2024-02-23T03:30:37;6.30;99.90
23873;DHT22;42884;50.718;4.630;2024-02-23T03:33:03;6.30;99.90
23873;DHT22;42884;50.718;4.630;2024-02-23T03:35:28;6.30;99.90
23873;DHT22;42884;50.718;4.630;2024-02-23T03:37:54;6.30;99.90
23873;DHT22;42884;50.718;4.630;2024-02-23T03:40:19;6.40;99.90
23873;DHT22;42884;50.718;4.630;2024-02-23T03:42:45;6.40;99.90
23873;DHT22;42884;50.718;4.630;2024-02-23T03:45:11;6.30;99.90
23873;DHT22;42884;50.718;4.630;2024-02-23T03:47:36;6.30;99.90
23873;DHT22;42884;50.718;4.630;2024-02-23T03:50:02;6.40;99.90
23873;DHT22;42884;50.718;4.630;2024-02-23T03:52:28;6.30;99.90
23873;DHT22;42884;50.718;4.630;2024-02-23T03:54:53;6.30;99.90
23873;DHT22;42884;50.718;4.630;2024-02-23T03:57:20;6.40;99.90
23873;DHT22;42884;50.718;4.630;2024-02-23T03:59:52;6.30;99.90
23873;DHT22;42884;50.718;4.630;2024-02-23T04:02:18;6.30;99.90
23873;DHT22;42884;50.718;4.630;2024-02-23T04:04:44;6.40;99.90
23873;DHT22;42884;50.718;4.630;2024-02-23T04:07:10;6.40;99.90
23873;DHT22;42884;50.718;4.630;2024-02-23T04:09:35;6.40;99.90
23873;DHT22;42884;50.718;4.630;2024-02-23T04:12:01;6.40;99.90
23873;DHT22;42884;50.718;4.630;2024-02-23T04:14:26;6.40;99.90
23873;DHT22;42884;50.718;4.630;2024-02-23T04:16:52;6.40;99.90
23873;DHT22;42884;50.718;4.630;2024-02-23T04:19:18;6.40;99.90
23873;DHT22;42884;50.718;4.630;2024-02-23T04:21:44;6.30;99.90
23873;DHT22;42884;50.718;4.630;2024-02-23T04:24:09;6.30;99.90
23873;DHT22;42884;50.718;4.630;2024-02-23T04:26:35;6.40;99.90
23873;DHT22;42884;50.718;4.630;2024-02-23T04:29:00;6.40;99.90
23873;DHT22;42884;50.718;4.630;2024-02-23T04:31:26;6.40;99.90
23873;DHT22;42884;50.718;4.630;2024-02-23T04:33:51;6.50;99.90
23873;DHT22;42884;50.718;4.630;2024-02-23T04:36:20;6.50;99.90
23873;DHT22;42884;50.718;4.630;2024-02-23T04:38:46;6.50;99.90
23873;DHT22;42884;50.718;4.630;2024-02-23T04:41:12;6.60;99.90
23873;DHT22;42884;50.718;4.630;2024-02-23T04:43:37;6.50;99.90
23873;DHT22;42884;50.718;4.630;2024-02-23T04:46:03;6.50;99.90
23873;DHT22;42884;50.718;4.630;2024-02-23T04:48:29;6.50;99.90
23873;DHT22;42884;50.718;4.630;2024-02-23T04:50:56;6.50;99.90
23873;DHT22;42884;50.718;4.630;2024-02-23T04:53:22;6.50;99.90
23873;DHT22;42884;50.718;4.630;2024-02-23T04:55:48;6.60;99.90
23873;DHT22;42884;50.718;4.630;2024-02-23T04:58:13;6.50;99.90
23873;DHT22;42884;50.718;4.630;2024-02-23T05:00:39;6.60;99.90
23873;DHT22;42884;50.718;4.630;2024-02-23T05:03:05;6.60;99.90
23873;DHT22;42884;50.718;4.630;2024-02-23T05:05:31;6.70;99.90
23873;DHT22;42884;50.718;4.630;2024-02-23T05:07:57;6.50;99.90
23873;DHT22;42884;50.718;4.630;2024-02-23T05:10:23;6.50;99.90
23873;DHT22;42884;50.718;4.630;2024-02-23T05:12:48;6.50;99.90
23873;DHT22;42884;50.718;4.630;2024-02-23T05:15:14;6.50;99.90
23873;DHT22;42884;50.718;4.630;2024-02-23T05:17:40;6.50;99.90
23873;DHT22;42884;50.718;4.630;2024-02-23T05:20:06;6.60;99.90
23873;DHT22;42884;50.718;4.630;2024-02-23T05:22:38;6.50;99.90
23873;DHT22;42884;50.718;4.630;2024-02-23T05:25:04;6.60;99.90
23873;DHT22;42884;50.718;4.630;2024-02-23T05:27:30;6.60;99.90
23873;DHT22;42884;50.718;4.630;2024-02-23T05:29:56;6.50;99.90
23873;DHT22;42884;50.718;4.630;2024-02-23T05:32:21;6.50;99.90
23873;DHT22;42884;50.718;4.630;2024-02-23T05:34:47;6.50;99.90
23873;DHT22;42884;50.718;4.630;2024-02-23T05:37:16;6.60;99.90
23873;DHT22;42884;50.718;4.630;2024-02-23T05:39:42;6.50;99.90
23873;DHT22;42884;50.718;4.630;2024-02-23T05:42:08;6.50;99.90
23873;DHT22;42884;50.718;4.630;2024-02-23T05:44:33;6.50;99.90
23873;DHT22;42884;50.718;4.630;2024-02-23T05:46:59;6.50;99.90
23873;DHT22;42884;50.718;4.630;2024-02-23T05:49:24;6.50;99.90
23873;DHT22;42884;50.718;4.630;2024-02-23T05:51:50;6.40;99.90
23873;DHT22;42884;50.718;4.630;2024-02-23T05:54:16;6.50;99.90
23873;DHT22;42884;50.718;4.630;2024-02-23T05:56:41;6.60;99.90
23873;DHT22;42884;50.718;4.630;2024-02-23T05:59:07;6.60;99.90
23873;DHT22;42884;50.718;4.630;2024-02-23T06:01:32;6.50;99.90
23873;DHT22;42884;50.718;4.630;2024-02-23T06:03:58;6.50;99.90
23873;DHT22;42884;50.718;4.630;2024-02-23T06:06:23;6.60;99.90
23873;DHT22;42884;50.718;4.630;2024-02-23T06:08:49;6.60;99.90
23873;DHT22;42884;50.718;4.630;2024-02-23T06:11:16;6.60;99.90
23873;DHT22;42884;50.718;4.630;2024-02-23T06:13:42;6.60;99.90
23873;DHT22;42884;50.718;4.630;2024-02-23T06:16:10;6.60;99.90
23873;DHT22;42884;50.718;4.630;2024-02-23T06:18:37;6.60;99.90
23873;DHT22;42884;50.718;4.630;2024-02-23T06:21:10;6.50;99.90
23873;DHT22;42884;50.718;4.630;2024-02-23T06:23:36;6.50;99.90
23873;DHT22;42884;50.718;4.630;2024-02-23T06:26:01;6.50;99.90
23873;DHT22;42884;50.718;4.630;2024-02-23T06:28:27;6.50;99.90
23873;DHT22;42884;50.718;4.630;2024-02-23T06:30:53;6.70;99.90
23873;DHT22;42884;50.718;4.630;2024-02-23T06:33:18;6.60;99.90
23873;DHT22;42884;50.718;4.630;2024-02-23T06:35:44;6.70;99.90
23873;DHT22;42884;50.718;4.630;2024-02-23T06:38:10;6.70;99.90
23873;DHT22;42884;50.718;4.630;2024-02-23T06:40:35;6.70;99.90
23873;DHT22;42884;50.718;4.630;2024-02-23T06:43:01;6.70;99.90
23873;DHT22;42884;50.718;4.630;2024-02-23T06:45:26;6.70;99.90
23873;DHT22;42884;50.718;4.630;2024-02-23T06:47:52;6.70;99.90
23873;DHT22;42884;50.718;4.630;2024-02-23T06:50:17;6.70;99.90
23873;DHT22;42884;50.718;4.630;2024-02-23T06:52:43;6.60;99.90
23873;DHT22;42884;50.718;4.630;2024-02-23T06:55:09;6.70;99.90
23873;DHT22;42884;50.718;4.630;2024-02-23T06:57:35;6.70;99.90
23873;DHT22;42884;50.718;4.630;2024-02-23T07:00:02;6.80;99.90
23873;DHT22;42884;50.718;4.630;2024-02-23T07:02:28;6.80;99.90
23873;DHT22;42884;50.718;4.630;2024-02-23T07:04:57;6.80;99.90
23873;DHT22;42884;50.718;4.630;2024-02-23T07:07:23;6.80;99.90
23873;DHT22;42884;50.718;4.630;2024-02-23T07:09:49;6.80;99.90
23873;DHT22;42884;50.718;4.630;2024-02-23T07:12:15;6.90;99.90
23873;DHT22;42884;50.718;4.630;2024-02-23T07:14:41;6.90;99.90
23873;DHT22;42884;50.718;4.630;2024-02-23T07:17:06;6.90;99.90
23873;DHT22;42884;50.718;4.630;2024-02-23T07:19:33;7.00;99.90
23873;DHT22;42884;50.718;4.630;2024-02-23T07:21:59;6.90;99.90
23873;DHT22;42884;50.718;4.630;2024-02-23T07:24:24;6.90;99.90
23873;DHT22;42884;50.718;4.630;2024-02-23T07:26:50;6.90;99.90
23873;DHT22;42884;50.718;4.630;2024-02-23T07:29:15;7.10;99.90
23873;DHT22;42884;50.718;4.630;2024-02-23T07:31:41;7.10;99.90
23873;DHT22;42884;50.718;4.630;2024-02-23T07:34:06;7.10;99.90
23873;DHT22;42884;50.718;4.630;2024-02-23T07:36:33;7.00;99.90
23873;DHT22;42884;50.718;4.630;2024-02-23T07:38:59;7.00;99.90
23873;DHT22;42884;50.718;4.630;2024-02-23T07:41:25;7.00;99.90
23873;DHT22;42884;50.718;4.630;2024-02-23T07:43:51;6.90;99.90
23873;DHT22;42884;50.718;4.630;2024-02-23T07:46:16;6.90;99.90
23873;DHT22;42884;50.718;4.630;2024-02-23T07:48:42;7.00;99.90
23873;DHT22;42884;50.718;4.630;2024-02-23T07:51:09;7.00;99.90
23873;DHT22;42884;50.718;4.630;2024-02-23T07:53:34;7.00;99.90
23873;DHT22;42884;50.718;4.630;2024-02-23T07:56:00;7.10;99.90
23873;DHT22;42884;50.718;4.630;2024-02-23T07:58:27;7.00;99.90
23873;DHT22;42884;50.718;4.630;2024-02-23T08:00:53;7.10;99.90
23873;DHT22;42884;50.718;4.630;2024-02-23T08:03:19;7.00;99.90
23873;DHT22;42884;50.718;4.630;2024-02-23T08:05:45;7.00;99.90
23873;DHT22;42884;50.718;4.630;2024-02-23T08:08:10;7.10;99.90
23873;DHT22;42884;50.718;4.630;2024-02-23T08:10:36;7.00;99.90
23873;DHT22;42884;50.718;4.630;2024-02-23T08:13:01;7.00;99.90
23873;DHT22;42884;50.718;4.630;2024-02-23T08:15:27;7.10;99.90
23873;DHT22;42884;50.718;4.630;2024-02-23T08:17:53;7.10;99.90
23873;DHT22;42884;50.718;4.630;2024-02-23T08:20:18;7.10;99.90
23873;DHT22;42884;50.718;4.630;2024-02-23T08:22:44;7.10;99.90
23873;DHT22;42884;50.718;4.630;2024-02-23T08:25:10;7.00;99.90
23873;DHT22;42884;50.718;4.630;2024-02-23T08:27:36;6.90;99.90
23873;DHT22;42884;50.718;4.630;2024-02-23T08:30:01;6.70;99.90
23873;DHT22;42884;50.718;4.630;2024-02-23T08:32:27;6.70;99.90
23873;DHT22;42884;50.718;4.630;2024-02-23T08:34:53;6.70;99.90
23873;DHT22;42884;50.718;4.630;2024-02-23T08:37:25;6.70;99.90
23873;DHT22;42884;50.718;4.630;2024-02-23T08:39:51;6.60;99.90
23873;DHT22;42884;50.718;4.630;2024-02-23T08:42:16;6.50;99.90
23873;DHT22;42884;50.718;4.630;2024-02-23T08:44:42;6.40;99.90
23873;DHT22;42884;50.718;4.630;2024-02-23T08:47:07;6.40;99.90
23873;DHT22;42884;50.718;4.630;2024-02-23T08:49:33;6.50;99.90
23873;DHT22;42884;50.718;4.630;2024-02-23T08:51:59;6.60;99.90
23873;DHT22;42884;50.718;4.630;2024-02-23T08:54:24;6.60;99.90
23873;DHT22;42884;50.718;4.630;2024-02-23T08:56:50;6.70;99.90
23873;DHT22;42884;50.718;4.630;2024-02-23T08:59:15;6.80;99.90
23873;DHT22;42884;50.718;4.630;2024-02-23T09:01:41;7.00;99.90
23873;DHT22;42884;50.718;4.630;2024-02-23T09:04:06;7.10;99.90
23873;DHT22;42884;50.718;4.630;2024-02-23T09:06:32;7.10;99.90
23873;DHT22;42884;50.718;4.630;2024-02-23T09:08:58;7.00;99.90
23873;DHT22;42884;50.718;4.630;2024-02-23T09:11:24;7.10;99.90
23873;DHT22;42884;50.718;4.630;2024-02-23T09:13:49;6.90;99.90
23873;DHT22;42884;50.718;4.630;2024-02-23T09:16:15;7.00;99.90
23873;DHT22;42884;50.718;4.630;2024-02-23T09:18:41;6.90;99.90
23873;DHT22;42884;50.718;4.630;2024-02-23T09:21:07;6.90;99.90
23873;DHT22;42884;50.718;4.630;2024-02-23T09:23:32;7.00;99.90
23873;DHT22;42884;50.718;4.630;2024-02-23T09:25:59;7.10;99.90
23873;DHT22;42884;50.718;4.630;2024-02-23T09:28:24;7.00;99.90
23873;DHT22;42884;50.718;4.630;2024-02-23T09:30:50;6.90;99.90
23873;DHT22;42884;50.718;4.630;2024-02-23T09:33:15;6.90;99.90
23873;DHT22;42884;50.718;4.630;2024-02-23T09:35:41;6.90;99.90
23873;DHT22;42884;50.718;4.630;2024-02-23T09:38:06;7.00;99.90
23873;DHT22;42884;50.718;4.630;2024-02-23T09:40:32;7.00;99.90
23873;DHT22;42884;50.718;4.630;2024-02-23T09:42:58;7.00;99.90
23873;DHT22;42884;50.718;4.630;2024-02-23T09:45:24;7.00;99.90
23873;DHT22;42884;50.718;4.630;2024-02-23T09:47:51;7.00;99.90
23873;DHT22;42884;50.718;4.630;2024-02-23T09:50:17;7.00;99.90
23873;DHT22;42884;50.718;4.630;2024-02-23T09:52:44;7.00;99.90
23873;DHT22;42884;50.718;4.630;2024-02-23T09:55:11;7.10;99.90
23873;DHT22;42884;50.718;4.630;2024-02-23T09:57:37;7.30;99.90
23873;DHT22;42884;50.718;4.630;2024-02-23T10:00:03;7.40;99.90
23873;DHT22;42884;50.718;4.630;2024-02-23T10:02:31;7.50;99.90
23873;DHT22;42884;50.718;4.630;2024-02-23T10:04:58;7.50;99.90
23873;DHT22;42884;50.718;4.630;2024-02-23T10:07:25;7.50;99.90
23873;DHT22;42884;50.718;4.630;2024-02-23T10:09:51;7.40;99.90
23873;DHT22;42884;50.718;4.630;2024-02-23T10:12:16;7.30;99.90
23873;DHT22;42884;50.718;4.630;2024-02-23T10:14:43;7.30;99.90
23873;DHT22;42884;50.718;4.630;2024-02-23T10:17:08;7.30;99.90
23873;DHT22;42884;50.718;4.630;2024-02-23T10:19:34;7.20;99.90
23873;DHT22;42884;50.718;4.630;2024-02-23T10:22:00;7.20;99.90
23873;DHT22;42884;50.718;4.630;2024-02-23T10:24:25;7.30;99.90
23873;DHT22;42884;50.718;4.630;2024-02-23T10:26:51;7.30;99.90
23873;DHT22;42884;50.718;4.630;2024-02-23T10:29:17;7.40;99.90
23873;DHT22;42884;50.718;4.630;2024-02-23T10:31:43;7.50;99.90
23873;DHT22;42884;50.718;4.630;2024-02-23T10:34:12;7.70;99.90
23873;DHT22;42884;50.718;4.630;2024-02-23T10:36:40;7.80;99.90
23873;DHT22;42884;50.718;4.630;2024-02-23T10:39:06;8.00;99.90
23873;DHT22;42884;50.718;4.630;2024-02-23T10:41:34;7.90;99.90
23873;DHT22;42884;50.718;4.630;2024-02-23T10:44:00;8.10;99.90
23873;DHT22;42884;50.718;4.630;2024-02-23T10:46:26;8.30;99.90
23873;DHT22;42884;50.718;4.630;2024-02-23T10:48:52;8.70;99.90
23873;DHT22;42884;50.718;4.630;2024-02-23T10:51:19;8.70;99.90
23873;DHT22;42884;50.718;4.630;2024-02-23T10:53:45;8.60;99.90
23873;DHT22;42884;50.718;4.630;2024-02-23T10:56:11;8.40;99.90
23873;DHT22;42884;50.718;4.630;2024-02-23T10:58:37;8.30;99.90
23873;DHT22;42884;50.718;4.630;2024-02-23T11:01:03;8.30;99.90
23873;DHT22;42884;50.718;4.630;2024-02-23T11:03:31;8.50;99.90
23873;DHT22;42884;50.718;4.630;2024-02-23T11:06:01;9.10;99.90
23873;DHT22;42884;50.718;4.630;2024-02-23T11:08:28;9.80;99.90
23873;DHT22;42884;50.718;4.630;2024-02-23T11:10:53;10.40;99.90
23873;DHT22;42884;50.718;4.630;2024-02-23T11:13:38;10.80;99.90
23873;DHT22;42884;50.718;4.630;2024-02-23T11:16:04;11.10;99.90
23873;DHT22;42884;50.718;4.630;2024-02-23T11:18:30;11.70;99.90
23873;DHT22;42884;50.718;4.630;2024-02-23T11:21:02;11.20;99.90
23873;DHT22;42884;50.718;4.630;2024-02-23T11:23:39;10.90;99.90
23873;DHT22;42884;50.718;4.630;2024-02-23T11:26:05;10.80;99.90
23873;DHT22;42884;50.718;4.630;2024-02-23T11:28:41;10.70;99.90
23873;DHT22;42884;50.718;4.630;2024-02-23T11:31:13;10.70;99.90
23873;DHT22;42884;50.718;4.630;2024-02-23T11:33:39;10.80;99.90
23873;DHT22;42884;50.718;4.630;2024-02-23T11:36:05;10.90;99.90
23873;DHT22;42884;50.718;4.630;2024-02-23T11:38:32;11.50;99.90
23873;DHT22;42884;50.718;4.630;2024-02-23T11:40:58;12.20;99.90
23873;DHT22;42884;50.718;4.630;2024-02-23T11:43:24;11.70;99.90
23873;DHT22;42884;50.718;4.630;2024-02-23T11:45:50;11.70;99.90
23873;DHT22;42884;50.718;4.630;2024-02-23T11:48:16;11.80;99.90
23873;DHT22;42884;50.718;4.630;2024-02-23T11:50:42;12.30;99.90
23873;DHT22;42884;50.718;4.630;2024-02-23T11:53:08;12.80;99.90
23873;DHT22;42884;50.718;4.630;2024-02-23T11:55:34;12.50;99.90
23873;DHT22;42884;50.718;4.630;2024-02-23T11:57:59;12.70;99.90
23873;DHT22;42884;50.718;4.630;2024-02-23T12:00:25;12.40;99.90
23873;DHT22;42884;50.718;4.630;2024-02-23T12:02:51;11.80;99.90
23873;DHT22;42884;50.718;4.630;2024-02-23T12:05:17;11.00;99.90
23873;DHT22;42884;50.718;4.630;2024-02-23T12:07:42;11.10;99.90
23873;DHT22;42884;50.718;4.630;2024-02-23T12:10:08;11.20;99.90
23873;DHT22;42884;50.718;4.630;2024-02-23T12:12:35;11.30;99.90
23873;DHT22;42884;50.718;4.630;2024-02-23T12:15:00;11.00;99.90
23873;DHT22;42884;50.718;4.630;2024-02-23T12:17:26;10.70;99.90
23873;DHT22;42884;50.718;4.630;2024-02-23T12:20:02;10.50;99.90
23873;DHT22;42884;50.718;4.630;2024-02-23T12:22:28;10.70;99.90
23873;DHT22;42884;50.718;4.630;2024-02-23T12:24:56;10.80;99.90
23873;DHT22;42884;50.718;4.630;2024-02-23T12:27:22;10.80;99.90
23873;DHT22;42884;50.718;4.630;2024-02-23T12:29:53;10.80;99.90
23873;DHT22;42884;50.718;4.630;2024-02-23T12:32:20;11.10;99.90
23873;DHT22;42884;50.718;4.630;2024-02-23T12:34:45;11.30;99.90
23873;DHT22;42884;50.718;4.630;2024-02-23T12:37:14;10.90;99.90
23873;DHT22;42884;50.718;4.630;2024-02-23T12:39:39;10.70;99.90
23873;DHT22;42884;50.718;4.630;2024-02-23T12:42:05;10.50;99.90
23873;DHT22;42884;50.718;4.630;2024-02-23T12:44:30;10.40;99.90
23873;DHT22;42884;50.718;4.630;2024-02-23T12:46:56;10.00;99.90
23873;DHT22;42884;50.718;4.630;2024-02-23T12:49:22;9.80;99.90
23873;DHT22;42884;50.718;4.630;2024-02-23T12:51:48;9.80;99.90
23873;DHT22;42884;50.718;4.630;2024-02-23T12:54:13;9.60;99.90
23873;DHT22;42884;50.718;4.630;2024-02-23T12:56:39;10.00;99.90
23873;DHT22;42884;50.718;4.630;2024-02-23T12:59:05;10.70;99.90
23873;DHT22;42884;50.718;4.630;2024-02-23T13:01:30;11.30;99.90
23873;DHT22;42884;50.718;4.630;2024-02-23T13:03:59;11.40;99.90
23873;DHT22;42884;50.718;4.630;2024-02-23T13:06:26;11.80;99.90
23873;DHT22;42884;50.718;4.630;2024-02-23T13:08:52;12.20;99.90
23873;DHT22;42884;50.718;4.630;2024-02-23T13:11:18;12.60;99.90
23873;DHT22;42884;50.718;4.630;2024-02-23T13:13:43;12.70;99.90
23873;DHT22;42884;50.718;4.630;2024-02-23T13:16:10;12.90;99.90
23873;DHT22;42884;50.718;4.630;2024-02-23T13:18:35;13.30;99.90
23873;DHT22;42884;50.718;4.630;2024-02-23T13:21:01;12.60;99.90
23873;DHT22;42884;50.718;4.630;2024-02-23T13:23:26;12.10;99.90
23873;DHT22;42884;50.718;4.630;2024-02-23T13:25:52;11.80;99.90
23873;DHT22;42884;50.718;4.630;2024-02-23T13:28:17;11.40;99.90
23873;DHT22;42884;50.718;4.630;2024-02-23T13:30:43;11.30;99.90
23873;DHT22;42884;50.718;4.630;2024-02-23T13:33:10;11.10;99.90
23873;DHT22;42884;50.718;4.630;2024-02-23T13:35:36;10.80;99.90
23873;DHT22;42884;50.718;4.630;2024-02-23T13:38:02;10.60;99.90
23873;DHT22;42884;50.718;4.630;2024-02-23T13:40:29;10.60;99.90
23873;DHT22;42884;50.718;4.630;2024-02-23T13:42:55;10.50;99.90
23873;DHT22;42884;50.718;4.630;2024-02-23T13:45:21;10.40;99.90
23873;DHT22;42884;50.718;4.630;2024-02-23T13:47:58;10.40;99.90
23873;DHT22;42884;50.718;4.630;2024-02-23T13:50:24;10.30;99.90
23873;DHT22;42884;50.718;4.630;2024-02-23T13:52:50;10.30;99.90
23873;DHT22;42884;50.718;4.630;2024-02-23T13:55:16;10.30;99.90
23873;DHT22;42884;50.718;4.630;2024-02-23T13:57:42;10.30;99.90
23873;DHT22;42884;50.718;4.630;2024-02-23T14:00:07;10.40;99.90
23873;DHT22;42884;50.718;4.630;2024-02-23T14:02:38;10.30;99.90
23873;DHT22;42884;50.718;4.630;2024-02-23T14:05:06;10.20;99.90
23873;DHT22;42884;50.718;4.630;2024-02-23T14:07:32;10.30;99.90
23873;DHT22;42884;50.718;4.630;2024-02-23T14:09:58;10.10;99.90
23873;DHT22;42884;50.718;4.630;2024-02-23T14:12:24;10.00;99.90
23873;DHT22;42884;50.718;4.630;2024-02-23T14:14:49;10.20;99.90
23873;DHT22;42884;50.718;4.630;2024-02-23T14:17:15;10.70;99.90
23873;DHT22;42884;50.718;4.630;2024-02-23T14:19:40;11.60;99.90
23873;DHT22;42884;50.718;4.630;2024-02-23T14:22:06;12.50;99.90
23873;DHT22;42884;50.718;4.630;2024-02-23T14:24:32;13.00;99.90
23873;DHT22;42884;50.718;4.630;2024-02-23T14:26:57;13.60;99.90
23873;DHT22;42884;50.718;4.630;2024-02-23T14:29:23;14.30;99.90
23873;DHT22;42884;50.718;4.630;2024-02-23T14:31:48;14.90;99.90
23873;DHT22;42884;50.718;4.630;2024-02-23T14:34:14;15.00;99.90
23873;DHT22;42884;50.718;4.630;2024-02-23T14:36:40;15.00;99.90
23873;DHT22;42884;50.718;4.630;2024-02-23T14:39:05;15.20;99.90
23873;DHT22;42884;50.718;4.630;2024-02-23T14:41:31;14.70;99.90
23873;DHT22;42884;50.718;4.630;2024-02-23T14:43:56;14.10;99.90
23873;DHT22;42884;50.718;4.630;2024-02-23T14:46:22;13.40;99.90
23873;DHT22;42884;50.718;4.630;2024-02-23T14:48:47;12.40;99.90
23873;DHT22;42884;50.718;4.630;2024-02-23T14:51:16;12.20;99.90
23873;DHT22;42884;50.718;4.630;2024-02-23T14:53:42;11.80;99.90
23873;DHT22;42884;50.718;4.630;2024-02-23T14:56:08;11.80;99.90
23873;DHT22;42884;50.718;4.630;2024-02-23T14:58:33;11.70;99.90
23873;DHT22;42884;50.718;4.630;2024-02-23T15:00:59;11.50;99.90
23873;DHT22;42884;50.718;4.630;2024-02-23T15:03:25;11.50;99.90
23873;DHT22;42884;50.718;4.630;2024-02-23T15:05:51;11.20;99.90
23873;DHT22;42884;50.718;4.630;2024-02-23T15:08:16;11.00;99.90
23873;DHT22;42884;50.718;4.630;2024-02-23T15:10:42;11.00;99.90
23873;DHT22;42884;50.718;4.630;2024-02-23T15:13:08;10.90;99.90
23873;DHT22;42884;50.718;4.630;2024-02-23T15:15:33;10.70;99.90
23873;DHT22;42884;50.718;4.630;2024-02-23T15:18:01;10.30;99.90
23873;DHT22;42884;50.718;4.630;2024-02-23T15:20:27;10.30;99.90
23873;DHT22;42884;50.718;4.630;2024-02-23T15:22:52;10.30;99.90
23873;DHT22;42884;50.718;4.630;2024-02-23T15:25:18;10.20;99.90
23873;DHT22;42884;50.718;4.630;2024-02-23T15:27:44;10.10;99.90
23873;DHT22;42884;50.718;4.630;2024-02-23T15:30:09;10.00;99.90
23873;DHT22;42884;50.718;4.630;2024-02-23T15:32:36;10.20;99.90
23873;DHT22;42884;50.718;4.630;2024-02-23T15:35:02;10.30;99.90